ePrivacy and GPDR Cookie Consent by Cookie Consent
EmailTwitter


Observations de surface / France / LFPO (07149)

Régions: Québec | Canada | États-Unis | Europe | France | UK | Ailleurs
Station
Affichage
Infos & localisation pour LFPO (07149) | Aide pour décoder les METARs

Observations prises le 2024-04-18 à 05H30 UTC à PARIS/ORLY, FR (LFPO)

Etat du ciel: partiellement nuageux.

Température: 4.0 Celsius

Point de rosée: 3.0 Celsius

Humidité relative: 93%

Facteur vent 2.

Vents: Nord-ouest à 9 km/h ou 5 noeuds.

Pression au niveau moyen de la mer: 101.80 kilopascals.

Visibilité horizontale: 6.21 milles terrestres ou 9.94 kilomètres.

Hauteur du plafond: 1311 mètres ( 4300 pieds ).

Observation METAR:

LFPO 180530Z 33005KT 9999 FEW015 SCT031 BKN043 04/03 Q1018 TEMPO BKN012=